首页
METAR-TAF:

METAR-TAF

机场 :

默特尔比奇, 南卡罗来纳州, 美国

纬度: 33-41N, 经度: 078-56W, 海拔: 8米

当前天气观测

该预报发布于37分钟前的03:56 UTC
风速14节,风向南转西南,有时为18节阵风
温度 19°C
湿度 73%
气压 1019 hPa
能見度: 16.1公里
多云层高于7500英尺
阴天层高于9000英尺

METAR: KMYR 190356Z AUTO 21014G18KT 10SM BKN075 OVC090 19/14 A3010 RMK AO2 SLP193 T01890144

时间: 23:33 (04:33 UTC)

预报

该预报发布于4小时和53分钟前的23:40 UTC
预报有效从19日的 00点(UTC)到 19日的 24点(UTC)
风速10节,风向,有时为20节阵风
能見度: 10公里
散云层高于1200英尺
多云层高于6000英尺
从 19日的 0400点(UTC)
风速13节,风向南转西南,有时为25节阵风
能見度: 10公里
多云层高于3000英尺
从 19日的 0900点(UTC)
风速11节,风向西转西南,有时为19节阵风
能見度: 8.0公里
多云层高于2500英尺
小阵雨

TAF: KMYR 182340Z 1900/1924 19010G20KT P6SM SCT012 BKN060 FM190400 21013G25KT P6SM BKN030 WS020/21045KT FM190900 24011G19KT 5SM -SHRA BKN025 WS020/23045KT

超过4000个机场的气象观测和天气预报(METAR&TAF报告)。

可查询的气象台以黄色和红色小点在地图上表示。

将鼠标移到小点上方,可查看气象台名称。

然后点击查看天气观测和预报。

如需切换地图:点击带黑十字的绿色按钮放大地图;点击带横线的绿色按钮缩小地图;或者点击绿色箭头查看邻近地区的地图。


METAR-TAF: